Startpagina
METAR-TAF:

METAR-TAF

Vliegvelden :

Bahrein, Bahrein

Internationale luchthaven van Bahrein

breedte: 26-16N, lengte: 050-39E, hoogte: 2 m

Actueel weer

Dit bericht is 22 minuten geleden gemaakt, om 00:00 UTC
Wind 5 kt uit het zuidwesten
Temperatuur 34°C
Vochtigheid 41%
Druk 996 hPa
Zicht 10 km of meer
geen wolken onder 1500 m en geen cumulonimbus

METAR: OBBI 280000Z 23005KT CAVOK 34/19 Q0996 NOSIG

Tijdstip: 03:22 (00:22 UTC)

Verwachting

Dit bericht is 1 uur en het 22 minuten geleden gemaakt, om 23:00 UTC
Verwachting geldig van 28 om 00 UTC tot 29 om 06 UTC
Wind 5 kt uit variabele richting
Zicht 10 km of meer
geen wolken onder 1500 m en geen cumulonimbus
Wijzigt naar
van 28 om 07 UTC tot 28 om 09 UTC
Wind 10 kt uit het noorden
Wijzigt naar
van 28 om 16 UTC tot 28 om 18 UTC
Wind 5 kt uit variabele richting
Kans 30% :
Tijdelijke
van 29 om 01 UTC tot 29 om 06 UTC
Zicht: 5000 m
Heiigheid

TAF: OBBI 272300Z 2800/2906 VRB05KT CAVOK BECMG 2807/2809 35010KT BECMG 2816/2818 VRB05KT PROB30 TEMPO 2901/2906 5000 HZ NSC

Waarnemingen en weersverwachtingen van meer dan 4000 vliegvelden (METAR en TAF).

De beschikbare stations zijn de gele en rode punten op de kaart.

Ga met uw muis naar het station om de naam te zien.

Klik dan om waarnemingen en weersverwachtingen te zien.

kaart wijzigen: klik op de groene knoppen met een zwart kruis om in te zoomen, op de groene knop met een streepje om uit te zoomen of op de groene pijlen voor aangrenzende kaarten.


METAR-TAF: